sensor_id;sensor_type;location;lat;lon;timestamp;pressure;altitude;pressure_sealevel;temperature;humidity
25526;BME280;13424;48.424;11.258;2023-08-06T00:01:26;94956.19;;;18.32;83.26
25526;BME280;13424;48.424;11.258;2023-08-06T00:03:52;94956.56;;;18.39;83.93
25526;BME280;13424;48.424;11.258;2023-08-06T00:06:18;94954.16;;;18.51;83.39
25526;BME280;13424;48.424;11.258;2023-08-06T00:08:44;94958.31;;;18.21;84.40
25526;BME280;13424;48.424;11.258;2023-08-06T00:11:10;94959.97;;;18.45;84.31
25526;BME280;13424;48.424;11.258;2023-08-06T00:13:36;94948.13;;;18.54;84.00
25526;BME280;13424;48.424;11.258;2023-08-06T00:16:13;94949.13;;;18.58;84.33
25526;BME280;13424;48.424;11.258;2023-08-06T00:18:40;94953.91;;;18.61;84.45
25526;BME280;13424;48.424;11.258;2023-08-06T00:21:06;94950.72;;;18.73;84.17
25526;BME280;13424;48.424;11.258;2023-08-06T00:23:32;94950.56;;;18.78;84.20
25526;BME280;13424;48.424;11.258;2023-08-06T00:25:58;94950.88;;;18.77;84.61
25526;BME280;13424;48.424;11.258;2023-08-06T00:28:24;94945.00;;;18.75;84.87
25526;BME280;13424;48.424;11.258;2023-08-06T00:30:57;94934.69;;;18.77;84.81
25526;BME280;13424;48.424;11.258;2023-08-06T00:33:23;94948.06;;;18.82;84.22
25526;BME280;13424;48.424;11.258;2023-08-06T00:35:50;94940.19;;;18.72;84.55
25526;BME280;13424;48.424;11.258;2023-08-06T00:38:16;94942.31;;;18.75;84.83
25526;BME280;13424;48.424;11.258;2023-08-06T00:40:42;94946.97;;;18.83;84.57
25526;BME280;13424;48.424;11.258;2023-08-06T00:43:10;94937.38;;;18.77;85.26
25526;BME280;13424;48.424;11.258;2023-08-06T00:45:37;94937.50;;;18.72;85.84
25526;BME280;13424;48.424;11.258;2023-08-06T00:48:05;94948.31;;;18.35;86.42
25526;BME280;13424;48.424;11.258;2023-08-06T00:50:32;94944.31;;;18.55;85.72
25526;BME280;13424;48.424;11.258;2023-08-06T00:52:59;94928.75;;;18.52;86.00
25526;BME280;13424;48.424;11.258;2023-08-06T00:55:25;94935.91;;;18.93;84.31
25526;BME280;13424;48.424;11.258;2023-08-06T00:57:51;94947.81;;;18.69;85.42
25526;BME280;13424;48.424;11.258;2023-08-06T01:00:20;94949.41;;;18.93;84.36
25526;BME280;13424;48.424;11.258;2023-08-06T01:02:46;94943.91;;;18.98;84.50
25526;BME280;13424;48.424;11.258;2023-08-06T01:05:13;94933.41;;;18.60;85.60
25526;BME280;13424;48.424;11.258;2023-08-06T01:11:32;94931.97;;;18.77;84.55
25526;BME280;13424;48.424;11.258;2023-08-06T01:14:37;94932.41;;;18.70;84.17
25526;BME280;13424;48.424;11.258;2023-08-06T01:17:10;94937.03;;;18.56;84.50
25526;BME280;13424;48.424;11.258;2023-08-06T01:24:03;94918.06;;;18.47;84.78
25526;BME280;13424;48.424;11.258;2023-08-06T01:26:37;94924.53;;;18.24;85.22
25526;BME280;13424;48.424;11.258;2023-08-06T01:29:40;94914.38;;;18.43;84.60
25526;BME280;13424;48.424;11.258;2023-08-06T01:32:09;94930.94;;;18.28;84.89
25526;BME280;13424;48.424;11.258;2023-08-06T01:34:38;94908.22;;;18.29;84.70
25526;BME280;13424;48.424;11.258;2023-08-06T01:37:06;94905.53;;;18.29;84.74
25526;BME280;13424;48.424;11.258;2023-08-06T01:39:34;94910.09;;;18.42;83.55
25526;BME280;13424;48.424;11.258;2023-08-06T01:42:03;94901.19;;;18.41;84.00
25526;BME280;13424;48.424;11.258;2023-08-06T01:44:29;94901.69;;;18.44;83.28
25526;BME280;13424;48.424;11.258;2023-08-06T01:46:55;94898.28;;;18.38;83.71
25526;BME280;13424;48.424;11.258;2023-08-06T01:49:21;94894.13;;;18.32;84.08
25526;BME280;13424;48.424;11.258;2023-08-06T01:51:47;94892.88;;;18.16;84.28
25526;BME280;13424;48.424;11.258;2023-08-06T01:54:13;94902.44;;;18.22;84.67
25526;BME280;13424;48.424;11.258;2023-08-06T01:56:39;94897.63;;;17.96;84.99
25526;BME280;13424;48.424;11.258;2023-08-06T01:59:05;94898.72;;;18.31;83.69
25526;BME280;13424;48.424;11.258;2023-08-06T02:01:31;94888.47;;;18.20;84.15
25526;BME280;13424;48.424;11.258;2023-08-06T02:03:57;94889.56;;;18.19;84.26
25526;BME280;13424;48.424;11.258;2023-08-06T02:06:23;94890.44;;;18.28;84.01
25526;BME280;13424;48.424;11.258;2023-08-06T02:08:49;94885.28;;;18.18;84.23
25526;BME280;13424;48.424;11.258;2023-08-06T02:11:15;94879.03;;;18.31;84.37
25526;BME280;13424;48.424;11.258;2023-08-06T02:13:41;94878.94;;;18.22;85.01
25526;BME280;13424;48.424;11.258;2023-08-06T02:16:08;94884.03;;;18.24;83.96
25526;BME280;13424;48.424;11.258;2023-08-06T02:18:36;94882.97;;;18.25;84.23
25526;BME280;13424;48.424;11.258;2023-08-06T02:21:02;94866.09;;;18.41;83.48
25526;BME280;13424;48.424;11.258;2023-08-06T02:23:28;94867.75;;;18.29;83.30
25526;BME280;13424;48.424;11.258;2023-08-06T02:26:12;94857.84;;;18.02;84.75
25526;BME280;13424;48.424;11.258;2023-08-06T02:28:38;94854.44;;;17.96;84.82
25526;BME280;13424;48.424;11.258;2023-08-06T02:31:05;94844.53;;;18.05;84.07
25526;BME280;13424;48.424;11.258;2023-08-06T02:33:41;94836.81;;;18.12;84.08
25526;BME280;13424;48.424;11.258;2023-08-06T02:36:07;94828.91;;;17.80;83.61
25526;BME280;13424;48.424;11.258;2023-08-06T02:38:33;94834.84;;;18.04;83.59
25526;BME280;13424;48.424;11.258;2023-08-06T02:41:02;94832.72;;;17.79;84.09
25526;BME280;13424;48.424;11.258;2023-08-06T02:43:29;94830.13;;;17.74;83.97
25526;BME280;13424;48.424;11.258;2023-08-06T02:46:01;94827.84;;;18.03;83.43
25526;BME280;13424;48.424;11.258;2023-08-06T02:48:28;94821.88;;;17.93;84.06
25526;BME280;13424;48.424;11.258;2023-08-06T02:50:58;94833.81;;;17.78;83.81
25526;BME280;13424;48.424;11.258;2023-08-06T02:53:25;94834.69;;;17.59;85.15
25526;BME280;13424;48.424;11.258;2023-08-06T02:55:51;94836.50;;;17.64;84.55
25526;BME280;13424;48.424;11.258;2023-08-06T02:58:22;94839.22;;;17.50;84.83
25526;BME280;13424;48.424;11.258;2023-08-06T03:01:04;94841.91;;;17.50;86.07
25526;BME280;13424;48.424;11.258;2023-08-06T03:03:35;94837.31;;;17.51;84.87
25526;BME280;13424;48.424;11.258;2023-08-06T03:06:03;94825.34;;;17.29;86.18
25526;BME280;13424;48.424;11.258;2023-08-06T03:08:40;94818.84;;;17.44;85.89
25526;BME280;13424;48.424;11.258;2023-08-06T03:11:06;94834.31;;;17.52;84.57
25526;BME280;13424;48.424;11.258;2023-08-06T03:13:32;94841.31;;;17.40;85.07
25526;BME280;13424;48.424;11.258;2023-08-06T03:19:58;94838.22;;;17.19;85.55
25526;BME280;13424;48.424;11.258;2023-08-06T03:22:25;94823.94;;;17.05;85.54
25526;BME280;13424;48.424;11.258;2023-08-06T03:24:51;94828.47;;;17.23;84.96
25526;BME280;13424;48.424;11.258;2023-08-06T03:27:18;94828.31;;;16.87;86.24
25526;BME280;13424;48.424;11.258;2023-08-06T03:29:44;94831.16;;;17.23;84.74
25526;BME280;13424;48.424;11.258;2023-08-06T03:32:11;94828.94;;;16.97;86.29
25526;BME280;13424;48.424;11.258;2023-08-06T03:34:37;94819.38;;;16.91;86.32
25526;BME280;13424;48.424;11.258;2023-08-06T03:37:03;94821.25;;;17.05;85.37
25526;BME280;13424;48.424;11.258;2023-08-06T03:39:29;94816.66;;;17.19;84.69
25526;BME280;13424;48.424;11.258;2023-08-06T03:41:55;94813.16;;;17.05;85.07
25526;BME280;13424;48.424;11.258;2023-08-06T03:44:22;94810.19;;;16.92;86.11
25526;BME280;13424;48.424;11.258;2023-08-06T03:46:48;94811.06;;;16.88;85.77
25526;BME280;13424;48.424;11.258;2023-08-06T03:49:14;94818.88;;;17.17;84.53
25526;BME280;13424;48.424;11.258;2023-08-06T03:51:40;94812.59;;;17.08;84.83
25526;BME280;13424;48.424;11.258;2023-08-06T03:54:06;94811.69;;;16.98;85.39
25526;BME280;13424;48.424;11.258;2023-08-06T03:56:32;94811.97;;;17.11;84.92
25526;BME280;13424;48.424;11.258;2023-08-06T03:58:59;94815.56;;;17.06;85.77
25526;BME280;13424;48.424;11.258;2023-08-06T04:01:25;94821.56;;;17.17;84.95
25526;BME280;13424;48.424;11.258;2023-08-06T04:03:52;94807.97;;;17.22;85.75
25526;BME280;13424;48.424;11.258;2023-08-06T04:06:18;94813.16;;;17.05;86.97
25526;BME280;13424;48.424;11.258;2023-08-06T04:08:44;94827.84;;;17.26;85.44
25526;BME280;13424;48.424;11.258;2023-08-06T04:11:10;94821.53;;;16.89;87.02
25526;BME280;13424;48.424;11.258;2023-08-06T04:13:36;94816.28;;;16.65;87.85
25526;BME280;13424;48.424;11.258;2023-08-06T04:16:03;94816.47;;;17.01;86.72
25526;BME280;13424;48.424;11.258;2023-08-06T04:18:30;94813.97;;;17.05;87.37
25526;BME280;13424;48.424;11.258;2023-08-06T04:20:56;94817.97;;;17.08;86.78
25526;BME280;13424;48.424;11.258;2023-08-06T04:23:23;94815.94;;;16.72;87.64
25526;BME280;13424;48.424;11.258;2023-08-06T04:25:57;94818.47;;;17.10;86.22
25526;BME280;13424;48.424;11.258;2023-08-06T04:28:25;94819.16;;;16.88;87.44
25526;BME280;13424;48.424;11.258;2023-08-06T04:31:09;94820.94;;;17.06;86.92
25526;BME280;13424;48.424;11.258;2023-08-06T04:33:35;94821.97;;;17.24;86.06
25526;BME280;13424;48.424;11.258;2023-08-06T04:36:08;94822.06;;;17.19;85.35
25526;BME280;13424;48.424;11.258;2023-08-06T04:38:34;94828.47;;;17.23;85.50
25526;BME280;13424;48.424;11.258;2023-08-06T04:41:03;94822.38;;;17.31;85.32
25526;BME280;13424;48.424;11.258;2023-08-06T04:43:31;94822.34;;;17.45;85.55
25526;BME280;13424;48.424;11.258;2023-08-06T04:45:58;94820.25;;;17.00;86.63
25526;BME280;13424;48.424;11.258;2023-08-06T04:48:24;94817.56;;;17.28;85.05
25526;BME280;13424;48.424;11.258;2023-08-06T04:50:50;94817.47;;;17.19;86.04
25526;BME280;13424;48.424;11.258;2023-08-06T04:53:17;94820.53;;;16.85;86.17
25526;BME280;13424;48.424;11.258;2023-08-06T04:55:43;94820.16;;;16.92;86.26
25526;BME280;13424;48.424;11.258;2023-08-06T04:58:10;94816.16;;;16.89;86.46
25526;BME280;13424;48.424;11.258;2023-08-06T05:00:36;94821.97;;;17.24;85.63
25526;BME280;13424;48.424;11.258;2023-08-06T05:03:02;94821.16;;;17.10;86.06
25526;BME280;13424;48.424;11.258;2023-08-06T05:05:29;94818.47;;;17.23;85.42
25526;BME280;13424;48.424;11.258;2023-08-06T05:07:57;94815.16;;;17.26;85.07
25526;BME280;13424;48.424;11.258;2023-08-06T05:10:25;94829.66;;;17.17;85.31
25526;BME280;13424;48.424;11.258;2023-08-06T05:12:52;94812.25;;;17.50;84.23
25526;BME280;13424;48.424;11.258;2023-08-06T05:15:18;94814.34;;;17.53;83.08
25526;BME280;13424;48.424;11.258;2023-08-06T05:17:44;94807.66;;;17.65;83.69
25526;BME280;13424;48.424;11.258;2023-08-06T05:20:11;94806.78;;;17.28;84.92
25526;BME280;13424;48.424;11.258;2023-08-06T05:22:37;94818.97;;;17.25;84.41
25526;BME280;13424;48.424;11.258;2023-08-06T05:25:03;94810.34;;;17.65;84.31
25526;BME280;13424;48.424;11.258;2023-08-06T05:27:30;94812.81;;;17.61;82.86
25526;BME280;13424;48.424;11.258;2023-08-06T05:29:56;94810.28;;;17.92;82.68
25526;BME280;13424;48.424;11.258;2023-08-06T05:32:22;94806.94;;;17.87;82.93
25526;BME280;13424;48.424;11.258;2023-08-06T05:34:48;94813.25;;;18.04;82.35
25526;BME280;13424;48.424;11.258;2023-08-06T05:37:14;94806.25;;;17.81;83.10
25526;BME280;13424;48.424;11.258;2023-08-06T05:39:40;94815.91;;;17.82;83.06
25526;BME280;13424;48.424;11.258;2023-08-06T05:42:07;94810.00;;;18.16;81.86
25526;BME280;13424;48.424;11.258;2023-08-06T05:44:33;94804.88;;;18.51;80.96
25526;BME280;13424;48.424;11.258;2023-08-06T05:46:59;94809.84;;;18.35;80.49
25526;BME280;13424;48.424;11.258;2023-08-06T05:49:25;94801.75;;;18.35;80.76
25526;BME280;13424;48.424;11.258;2023-08-06T05:51:51;94816.59;;;18.68;80.14
25526;BME280;13424;48.424;11.258;2023-08-06T05:54:19;94811.13;;;18.60;80.53
25526;BME280;13424;48.424;11.258;2023-08-06T05:56:45;94811.44;;;18.36;79.98
25526;BME280;13424;48.424;11.258;2023-08-06T05:59:11;94814.44;;;18.57;81.26
25526;BME280;13424;48.424;11.258;2023-08-06T06:01:37;94810.13;;;18.56;79.19
25526;BME280;13424;48.424;11.258;2023-08-06T06:07:56;94808.00;;;18.22;80.72
25526;BME280;13424;48.424;11.258;2023-08-06T06:10:22;94815.97;;;18.27;79.88
25526;BME280;13424;48.424;11.258;2023-08-06T06:12:48;94806.41;;;17.84;82.51
25526;BME280;13424;48.424;11.258;2023-08-06T06:15:14;94811.41;;;18.13;81.77
25526;BME280;13424;48.424;11.258;2023-08-06T06:17:40;94807.78;;;17.96;80.97
25526;BME280;13424;48.424;11.258;2023-08-06T06:20:07;94811.44;;;18.58;80.13
25526;BME280;13424;48.424;11.258;2023-08-06T06:22:33;94810.81;;;18.39;80.16
25526;BME280;13424;48.424;11.258;2023-08-06T06:24:59;94814.72;;;18.55;79.92
25526;BME280;13424;48.424;11.258;2023-08-06T06:27:34;94815.59;;;18.64;79.57
25526;BME280;13424;48.424;11.258;2023-08-06T06:30:00;94812.91;;;18.42;80.83
25526;BME280;13424;48.424;11.258;2023-08-06T06:32:25;94807.38;;;18.69;79.01
25526;BME280;13424;48.424;11.258;2023-08-06T06:34:51;94809.47;;;18.50;79.58
25526;BME280;13424;48.424;11.258;2023-08-06T06:37:17;94807.75;;;18.77;78.46
25526;BME280;13424;48.424;11.258;2023-08-06T06:43:34;94809.22;;;18.60;79.16
25526;BME280;13424;48.424;11.258;2023-08-06T06:46:00;94803.84;;;18.91;78.13
25526;BME280;13424;48.424;11.258;2023-08-06T06:48:29;94812.53;;;18.57;80.71
25526;BME280;13424;48.424;11.258;2023-08-06T06:50:56;94804.34;;;19.02;78.75
25526;BME280;13424;48.424;11.258;2023-08-06T06:53:23;94800.72;;;19.07;77.20
25526;BME280;13424;48.424;11.258;2023-08-06T06:56:01;94802.72;;;20.15;75.47
25526;BME280;13424;48.424;11.258;2023-08-06T06:58:28;94802.88;;;20.01;77.07
25526;BME280;13424;48.424;11.258;2023-08-06T07:01:59;94807.81;;;20.08;75.73
25526;BME280;13424;48.424;11.258;2023-08-06T07:04:25;94804.13;;;20.65;72.57
25526;BME280;13424;48.424;11.258;2023-08-06T07:06:51;94795.88;;;20.00;75.12
25526;BME280;13424;48.424;11.258;2023-08-06T07:09:18;94800.00;;;19.89;75.07
25526;BME280;13424;48.424;11.258;2023-08-06T07:11:44;94801.63;;;19.42;75.62
25526;BME280;13424;48.424;11.258;2023-08-06T07:14:10;94806.13;;;19.55;75.70
25526;BME280;13424;48.424;11.258;2023-08-06T07:16:36;94807.66;;;18.90;76.33
25526;BME280;13424;48.424;11.258;2023-08-06T07:19:02;94809.81;;;19.19;75.22
25526;BME280;13424;48.424;11.258;2023-08-06T07:21:28;94811.50;;;19.38;74.01
25526;BME280;13424;48.424;11.258;2023-08-06T07:23:54;94795.69;;;19.22;74.80
25526;BME280;13424;48.424;11.258;2023-08-06T07:26:20;94804.28;;;19.82;72.76
25526;BME280;13424;48.424;11.258;2023-08-06T07:33:12;94803.97;;;20.61;72.08
25526;BME280;13424;48.424;11.258;2023-08-06T07:35:38;94798.84;;;20.68;71.36
25526;BME280;13424;48.424;11.258;2023-08-06T07:38:04;94805.25;;;20.03;70.99
25526;BME280;13424;48.424;11.258;2023-08-06T07:40:30;94802.06;;;20.18;71.92
25526;BME280;13424;48.424;11.258;2023-08-06T07:42:56;94787.56;;;19.62;72.67
25526;BME280;13424;48.424;11.258;2023-08-06T07:45:22;94802.88;;;20.62;73.03
25526;BME280;13424;48.424;11.258;2023-08-06T07:47:50;94802.16;;;20.82;72.13
25526;BME280;13424;48.424;11.258;2023-08-06T07:50:16;94804.31;;;20.16;72.04
25526;BME280;13424;48.424;11.258;2023-08-06T07:52:42;94801.91;;;19.89;72.99
25526;BME280;13424;48.424;11.258;2023-08-06T07:55:08;94808.50;;;19.48;73.72
25526;BME280;13424;48.424;11.258;2023-08-06T07:57:34;94810.81;;;20.41;73.47
25526;BME280;13424;48.424;11.258;2023-08-06T08:00:01;94802.09;;;20.01;71.73
25526;BME280;13424;48.424;11.258;2023-08-06T08:02:27;94807.03;;;19.42;72.65
25526;BME280;13424;48.424;11.258;2023-08-06T08:04:53;94807.28;;;19.14;73.14
25526;BME280;13424;48.424;11.258;2023-08-06T08:07:19;94806.03;;;18.58;73.71
25526;BME280;13424;48.424;11.258;2023-08-06T08:09:45;94802.94;;;19.53;71.91
25526;BME280;13424;48.424;11.258;2023-08-06T08:12:11;94798.44;;;19.31;72.81
25526;BME280;13424;48.424;11.258;2023-08-06T08:14:37;94810.75;;;19.06;73.15
25526;BME280;13424;48.424;11.258;2023-08-06T08:17:06;94811.25;;;19.65;72.10
25526;BME280;13424;48.424;11.258;2023-08-06T08:19:34;94801.00;;;19.45;71.57
25526;BME280;13424;48.424;11.258;2023-08-06T08:22:00;94799.44;;;19.44;71.81
25526;BME280;13424;48.424;11.258;2023-08-06T08:24:26;94803.34;;;20.12;71.08
25526;BME280;13424;48.424;11.258;2023-08-06T08:26:53;94797.94;;;19.95;70.77
25526;BME280;13424;48.424;11.258;2023-08-06T08:29:20;94798.41;;;20.05;69.40
25526;BME280;13424;48.424;11.258;2023-08-06T08:31:47;94793.16;;;20.52;69.23
25526;BME280;13424;48.424;11.258;2023-08-06T08:34:16;94790.75;;;20.42;69.10
25526;BME280;13424;48.424;11.258;2023-08-06T08:36:42;94786.63;;;19.93;68.91
25526;BME280;13424;48.424;11.258;2023-08-06T08:39:09;94791.25;;;20.01;70.70
25526;BME280;13424;48.424;11.258;2023-08-06T08:41:37;94795.06;;;20.34;69.79
25526;BME280;13424;48.424;11.258;2023-08-06T08:44:08;94788.56;;;20.01;71.30
25526;BME280;13424;48.424;11.258;2023-08-06T08:46:40;94797.31;;;20.15;69.74
25526;BME280;13424;48.424;11.258;2023-08-06T08:49:06;94797.16;;;20.46;70.24
25526;BME280;13424;48.424;11.258;2023-08-06T08:51:34;94800.00;;;20.50;69.30
25526;BME280;13424;48.424;11.258;2023-08-06T08:54:03;94800.91;;;19.59;71.48
25526;BME280;13424;48.424;11.258;2023-08-06T08:56:31;94800.00;;;20.24;70.10
25526;BME280;13424;48.424;11.258;2023-08-06T08:58:57;94795.50;;;19.59;68.92
25526;BME280;13424;48.424;11.258;2023-08-06T09:01:23;94791.66;;;19.11;70.42
25526;BME280;13424;48.424;11.258;2023-08-06T09:03:51;94813.09;;;19.39;69.40
25526;BME280;13424;48.424;11.258;2023-08-06T09:06:19;94792.53;;;19.86;69.12
25526;BME280;13424;48.424;11.258;2023-08-06T09:09:38;94780.09;;;19.59;69.03
25526;BME280;13424;48.424;11.258;2023-08-06T09:12:15;94800.31;;;20.31;67.42
25526;BME280;13424;48.424;11.258;2023-08-06T09:14:42;94788.81;;;20.69;67.47
25526;BME280;13424;48.424;11.258;2023-08-06T09:17:09;94796.97;;;20.25;67.23
25526;BME280;13424;48.424;11.258;2023-08-06T09:19:42;94796.56;;;20.87;67.13
25526;BME280;13424;48.424;11.258;2023-08-06T09:22:12;94806.03;;;19.20;71.66
25526;BME280;13424;48.424;11.258;2023-08-06T09:24:42;94800.31;;;18.82;75.85
25526;BME280;13424;48.424;11.258;2023-08-06T09:27:55;94804.75;;;19.27;76.08
25526;BME280;13424;48.424;11.258;2023-08-06T09:30:36;94814.91;;;18.81;77.59
25526;BME280;13424;48.424;11.258;2023-08-06T09:33:02;94806.88;;;18.23;80.94
25526;BME280;13424;48.424;11.258;2023-08-06T09:35:30;94808.09;;;17.94;81.80
25526;BME280;13424;48.424;11.258;2023-08-06T09:38:07;94808.06;;;19.15;80.90
25526;BME280;13424;48.424;11.258;2023-08-06T09:40:34;94804.66;;;19.49;79.43
25526;BME280;13424;48.424;11.258;2023-08-06T09:43:01;94807.78;;;19.82;78.78
25526;BME280;13424;48.424;11.258;2023-08-06T09:45:37;94806.88;;;19.38;78.16
25526;BME280;13424;48.424;11.258;2023-08-06T09:48:06;94804.88;;;18.73;78.35
25526;BME280;13424;48.424;11.258;2023-08-06T09:50:37;94806.81;;;18.59;79.25
25526;BME280;13424;48.424;11.258;2023-08-06T09:53:06;94811.78;;;17.98;81.93
25526;BME280;13424;48.424;11.258;2023-08-06T09:55:34;94805.22;;;17.91;82.69
25526;BME280;13424;48.424;11.258;2023-08-06T09:58:01;94811.19;;;18.01;83.17
25526;BME280;13424;48.424;11.258;2023-08-06T10:00:27;94806.25;;;18.48;83.57
25526;BME280;13424;48.424;11.258;2023-08-06T10:02:55;94811.03;;;18.96;82.39
25526;BME280;13424;48.424;11.258;2023-08-06T10:05:25;94822.66;;;19.45;79.31
25526;BME280;13424;48.424;11.258;2023-08-06T10:07:53;94813.84;;;19.79;80.46
25526;BME280;13424;48.424;11.258;2023-08-06T10:14:25;94816.19;;;19.63;76.35
25526;BME280;13424;48.424;11.258;2023-08-06T10:16:53;94801.41;;;19.12;74.49
25526;BME280;13424;48.424;11.258;2023-08-06T10:19:20;94817.66;;;19.21;75.66
25526;BME280;13424;48.424;11.258;2023-08-06T10:24:58;94812.25;;;20.21;74.05
25526;BME280;13424;48.424;11.258;2023-08-06T10:30:31;94809.41;;;20.09;73.69
25526;BME280;13424;48.424;11.258;2023-08-06T10:33:02;94823.88;;;20.39;73.78
25526;BME280;13424;48.424;11.258;2023-08-06T10:35:42;94812.91;;;19.84;72.40
25526;BME280;13424;48.424;11.258;2023-08-06T10:41:03;94806.84;;;20.21;73.73
25526;BME280;13424;48.424;11.258;2023-08-06T10:43:36;94819.75;;;20.59;72.09
25526;BME280;13424;48.424;11.258;2023-08-06T10:46:10;94814.81;;;19.92;71.64
25526;BME280;13424;48.424;11.258;2023-08-06T10:48:41;94827.56;;;19.91;71.28
25526;BME280;13424;48.424;11.258;2023-08-06T10:51:13;94823.34;;;19.59;72.65
25526;BME280;13424;48.424;11.258;2023-08-06T10:53:45;94829.31;;;19.39;73.78
25526;BME280;13424;48.424;11.258;2023-08-06T10:56:24;94824.19;;;19.29;72.80
25526;BME280;13424;48.424;11.258;2023-08-06T10:58:55;94832.81;;;19.48;73.27
25526;BME280;13424;48.424;11.258;2023-08-06T11:01:23;94838.06;;;18.29;77.52
25526;BME280;13424;48.424;11.258;2023-08-06T11:03:50;94829.28;;;18.23;78.81
25526;BME280;13424;48.424;11.258;2023-08-06T11:06:21;94826.78;;;18.27;77.79
25526;BME280;13424;48.424;11.258;2023-08-06T11:08:53;94837.13;;;17.47;80.77
25526;BME280;13424;48.424;11.258;2023-08-06T11:11:20;94848.50;;;17.72;80.41
25526;BME280;13424;48.424;11.258;2023-08-06T11:13:49;94840.63;;;18.11;80.12
25526;BME280;13424;48.424;11.258;2023-08-06T11:16:19;94836.19;;;18.16;80.76
25526;BME280;13424;48.424;11.258;2023-08-06T11:18:45;94832.66;;;18.51;78.83
25526;BME280;13424;48.424;11.258;2023-08-06T11:21:11;94835.25;;;18.34;78.50
25526;BME280;13424;48.424;11.258;2023-08-06T11:23:38;94836.31;;;18.55;77.38
25526;BME280;13424;48.424;11.258;2023-08-06T11:26:04;94838.66;;;18.93;75.73
25526;BME280;13424;48.424;11.258;2023-08-06T11:28:30;94836.41;;;18.95;74.39
25526;BME280;13424;48.424;11.258;2023-08-06T11:30:58;94832.31;;;18.66;76.36
25526;BME280;13424;48.424;11.258;2023-08-06T11:33:27;94831.06;;;18.50;75.42
25526;BME280;13424;48.424;11.258;2023-08-06T11:35:59;94841.31;;;18.17;74.39
25526;BME280;13424;48.424;11.258;2023-08-06T11:38:29;94835.09;;;17.94;75.75
25526;BME280;13424;48.424;11.258;2023-08-06T11:40:56;94835.22;;;18.11;75.22
25526;BME280;13424;48.424;11.258;2023-08-06T11:43:22;94839.91;;;18.64;73.57
25526;BME280;13424;48.424;11.258;2023-08-06T11:45:51;94842.97;;;18.72;74.22
25526;BME280;13424;48.424;11.258;2023-08-06T11:48:20;94847.63;;;18.57;73.19
25526;BME280;13424;48.424;11.258;2023-08-06T11:50:46;94849.19;;;19.03;72.06
25526;BME280;13424;48.424;11.258;2023-08-06T11:53:14;94845.41;;;19.52;71.20
25526;BME280;13424;48.424;11.258;2023-08-06T11:55:40;94841.94;;;19.12;71.21
25526;BME280;13424;48.424;11.258;2023-08-06T11:58:07;94856.03;;;19.97;69.49
25526;BME280;13424;48.424;11.258;2023-08-06T12:00:33;94843.47;;;20.10;70.10
25526;BME280;13424;48.424;11.258;2023-08-06T12:02:59;94843.00;;;20.51;67.90
25526;BME280;13424;48.424;11.258;2023-08-06T12:05:32;94843.81;;;20.52;68.70
25526;BME280;13424;48.424;11.258;2023-08-06T12:08:02;94846.03;;;20.32;68.18
25526;BME280;13424;48.424;11.258;2023-08-06T12:10:31;94838.38;;;20.00;68.01
25526;BME280;13424;48.424;11.258;2023-08-06T12:12:58;94844.72;;;20.04;68.62
25526;BME280;13424;48.424;11.258;2023-08-06T12:15:24;94845.06;;;20.11;69.79
25526;BME280;13424;48.424;11.258;2023-08-06T12:17:50;94849.41;;;19.55;71.63
25526;BME280;13424;48.424;11.258;2023-08-06T12:20:16;94858.19;;;19.21;74.91
25526;BME280;13424;48.424;11.258;2023-08-06T12:22:42;94860.41;;;19.59;74.85
25526;BME280;13424;48.424;11.258;2023-08-06T12:25:11;94850.72;;;19.66;73.03
25526;BME280;13424;48.424;11.258;2023-08-06T12:27:43;94864.63;;;19.91;71.82
25526;BME280;13424;48.424;11.258;2023-08-06T12:30:11;94867.97;;;19.48;71.74
25526;BME280;13424;48.424;11.258;2023-08-06T12:32:39;94862.88;;;20.12;70.95
25526;BME280;13424;48.424;11.258;2023-08-06T12:35:06;94867.84;;;20.19;71.09
25526;BME280;13424;48.424;11.258;2023-08-06T12:37:33;94863.69;;;19.07;73.38
25526;BME280;13424;48.424;11.258;2023-08-06T12:39:59;94861.50;;;18.87;73.41
25526;BME280;13424;48.424;11.258;2023-08-06T12:42:25;94877.09;;;19.21;74.50
25526;BME280;13424;48.424;11.258;2023-08-06T12:44:52;94865.88;;;18.74;72.77
25526;BME280;13424;48.424;11.258;2023-08-06T12:47:18;94863.06;;;18.88;74.15
25526;BME280;13424;48.424;11.258;2023-08-06T12:54:09;94853.03;;;18.80;73.41
25526;BME280;13424;48.424;11.258;2023-08-06T12:56:35;94862.09;;;18.61;74.48
25526;BME280;13424;48.424;11.258;2023-08-06T12:59:01;94867.53;;;18.84;74.27
25526;BME280;13424;48.424;11.258;2023-08-06T13:01:27;94868.09;;;19.03;75.55
25526;BME280;13424;48.424;11.258;2023-08-06T13:03:53;94866.16;;;19.35;74.23
25526;BME280;13424;48.424;11.258;2023-08-06T13:06:19;94877.63;;;19.32;75.78
25526;BME280;13424;48.424;11.258;2023-08-06T13:08:45;94872.63;;;19.56;72.88
25526;BME280;13424;48.424;11.258;2023-08-06T13:11:11;94875.25;;;19.78;74.01
25526;BME280;13424;48.424;11.258;2023-08-06T13:13:37;94862.75;;;18.81;73.99
25526;BME280;13424;48.424;11.258;2023-08-06T13:16:03;94868.84;;;18.95;75.18
25526;BME280;13424;48.424;11.258;2023-08-06T13:18:29;94870.34;;;19.41;74.15
25526;BME280;13424;48.424;11.258;2023-08-06T13:20:56;94866.25;;;19.12;74.11
25526;BME280;13424;48.424;11.258;2023-08-06T13:23:22;94869.09;;;18.40;78.29
25526;BME280;13424;48.424;11.258;2023-08-06T13:25:48;94883.00;;;18.69;78.44
25526;BME280;13424;48.424;11.258;2023-08-06T13:28:14;94884.22;;;19.17;78.06
25526;BME280;13424;48.424;11.258;2023-08-06T13:30:40;94883.28;;;19.52;76.37
25526;BME280;13424;48.424;11.258;2023-08-06T13:33:10;94870.53;;;18.60;76.52
25526;BME280;13424;48.424;11.258;2023-08-06T13:35:45;94892.00;;;18.06;78.18
25526;BME280;13424;48.424;11.258;2023-08-06T13:38:11;94889.94;;;18.48;77.80